Terminal Aerodrome Forecast
Issued by NWS Melbourne, FL

Home | Current Version | Previous Version | Text Only | Print | Product List | Glossary On
Versions: 1 2 3 4 5 6 7 8 9 10 11 12
855
FTUS42 KMLB 261134
TAFMLB
TAF
KMLB 261134Z 2612/2712 VRB02KT P6SM SCT035
     FM261400 15005KT P6SM FEW030
     FM261700 11011KT P6SM SCT040
     FM270200 14006KT P6SM SKC=

USA.gov is the U.S. government's official web portal to all federal, state and local government web resources and services.